Time;durP1;ratioP1;P1;durP2;ratioP2;P2;SDS_P1;SDS_P2;PMS_P1;PMS_P2;Temp;Humidity;BMP_temperature;BMP_pressure;BME280_temperature;BME280_humidity;BME280_pressure;Samples;Min_cycle;Max_cycle;Signal;HPM_P1;HPM_P2
2022/03/21 00:01:35;;;;;;;25.33;16.65;;;;;;;10.04;65.63;101664.06;5052144;28;20501;-51
2022/03/21 00:04:04;;;;;;;20.08;16.17;;;;;;;10.03;65.94;101671.56;5051730;28;20411;-53
2022/03/21 00:06:31;;;;;;;20.60;17.58;;;;;;;10.05;65.76;101674.91;5051951;28;20402;-50
2022/03/21 00:08:59;;;;;;;21.98;17.98;;;;;;;9.99;65.33;101677.97;5051439;28;20056;-53
2022/03/21 00:11:27;;;;;;;24.33;19.10;;;;;;;10.01;65.22;101664.63;5051925;28;20064;-52
2022/03/21 00:13:55;;;;;;;19.48;16.95;;;;;;;10.01;65.26;101657.09;5051124;28;20068;-52
2022/03/21 00:16:24;;;;;;;21.92;17.98;;;;;;;9.98;65.27;101670.75;5052134;28;20162;-50
2022/03/21 00:18:52;;;;;;;;;;;;;;;9.94;65.03;101670.47;5052169;28;20049;-52
2022/03/21 00:21:21;;;;;;;21.35;16.23;;;;;;;9.94;64.98;101670.47;5051708;28;19924;-51
2022/03/21 00:23:48;;;;;;;21.23;18.23;;;;;;;9.88;65.18;101669.63;5051553;28;20544;-53
2022/03/21 00:26:16;;;;;;;19.90;17.15;;;;;;;9.90;65.19;101670.19;5051474;28;20053;-50
2022/03/21 00:28:43;;;;;;;23.13;17.73;;;;;;;9.88;65.19;101672.44;5051041;28;20049;-56
2022/03/21 00:31:13;;;;;;;22.67;17.48;;;;;;;9.86;65.25;101674.66;5051496;28;20049;-54
2022/03/21 00:33:40;;;;;;;22.67;16.52;;;;;;;9.86;64.78;101673.81;5051447;28;20053;-50
2022/03/21 00:36:08;;;;;;;23.98;16.80;;;;;;;9.75;65.20;101673.00;5051523;28;20481;-53
2022/03/21 00:38:37;;;;;;;20.75;16.25;;;;;;;9.79;65.28;101671.34;5051097;28;20048;-54
2022/03/21 00:41:08;;;;;;;21.75;16.95;;;;;;;9.81;65.34;101665.50;5051247;28;20530;-50
2022/03/21 00:43:37;;;;;;;25.38;18.35;;;;;;;9.83;64.88;101671.63;5050370;28;20056;-51
2022/03/21 00:46:04;;;;;;;21.55;17.15;;;;;;;9.78;64.80;101666.03;5051453;28;20101;-51
2022/03/21 00:48:32;;;;;;;23.30;18.05;;;;;;;9.79;65.01;101667.72;5051644;28;20048;-51
2022/03/21 00:51:00;;;;;;;21.40;17.60;;;;;;;9.83;65.25;101668.84;5051065;28;20473;-53
2022/03/21 00:53:27;;;;;;;23.92;17.98;;;;;;;9.86;64.80;101671.88;5051088;28;20057;-53
2022/03/21 00:55:56;;;;;;;23.17;18.52;;;;;;;9.90;64.95;101672.16;5051286;28;20064;-55
2022/03/21 00:58:24;;;;;;;25.90;19.33;;;;;;;9.92;65.14;101679.09;5050290;28;20045;-53
2022/03/21 01:00:54;;;;;;;23.38;19.10;;;;;;;9.94;64.87;101684.41;5055185;28;20064;-53
2022/03/21 01:03:21;;;;;;;;;;;;;;;9.93;65.15;101679.94;5055365;28;20421;-53
2022/03/21 01:05:48;;;;;;;21.88;16.60;;;;;;;9.94;65.04;101681.59;5055085;28;19927;-55
2022/03/21 01:08:16;;;;;;;22.25;17.67;;;;;;;9.99;65.06;101677.97;5055365;28;20501;-51
2022/03/21 01:10:43;;;;;;;21.15;17.23;;;;;;;10.01;64.92;101673.78;5054718;28;20059;-52
2022/03/21 01:13:12;;;;;;;23.70;18.13;;;;;;;10.04;64.93;101672.41;5054088;28;20478;-52
2022/03/21 01:15:39;;;;;;;20.00;16.37;;;;;;;10.07;64.73;101678.25;5054917;28;20055;-53
2022/03/21 01:18:07;;;;;;;20.73;16.23;;;;;;;10.08;64.54;101682.72;5054743;28;20049;-50
2022/03/21 01:20:35;;;;;;;22.95;18.42;;;;;;;10.09;64.76;101672.41;5055078;28;20409;-52
2022/03/21 01:23:04;;;;;;;21.67;17.35;;;;;;;10.13;64.99;101676.28;5054255;28;20167;-54
2022/03/21 01:25:34;;;;;;;23.13;17.98;;;;;;;10.13;64.66;101682.69;5054979;28;20060;-53
2022/03/21 01:28:02;;;;;;;25.08;17.90;;;;;;;10.15;64.52;101683.22;5054480;28;20052;-52
2022/03/21 01:30:31;;;;;;;20.23;16.90;;;;;;;10.16;64.84;101682.13;5054157;28;20060;-51
2022/03/21 01:32:58;;;;;;;20.52;17.52;;;;;;;10.19;64.66;101674.34;5054578;28;20055;-51
2022/03/21 01:35:26;;;;;;;20.13;16.27;;;;;;;10.18;64.93;101675.44;5054972;28;20064;-53
2022/03/21 01:37:54;;;;;;;18.70;15.93;;;;;;;10.22;64.63;101690.47;5054453;28;20056;-50
2022/03/21 01:40:21;;;;;;;21.63;17.13;;;;;;;10.23;64.52;101686.56;5054424;28;20394;-54
2022/03/21 01:42:49;;;;;;;22.75;17.60;;;;;;;10.22;64.20;101687.69;5054504;28;20053;-53
2022/03/21 01:45:17;;;;;;;21.25;16.73;;;;;;;10.21;64.13;101686.03;5053533;28;20080;-54
2022/03/21 01:47:47;;;;;;;20.80;16.35;;;;;;;10.19;64.66;101679.91;5054666;28;20052;-54
2022/03/21 01:50:15;;;;;;;18.45;15.48;;;;;;;10.18;64.46;101672.66;5054095;28;20147;-51
2022/03/21 01:52:46;;;;;;;19.90;15.30;;;;;;;10.16;64.42;101676.56;5054311;28;20508;-50
2022/03/21 01:58:01;;;;;;;21.55;17.50;;;;;;;10.12;64.47;101664.31;5057310;28;20064;-53
2022/03/21 02:00:29;;;;;;;22.48;18.50;;;;;;;10.13;64.49;101656.81;5053593;28;20099;-53
2022/03/21 02:02:58;;;;;;;21.60;17.85;;;;;;;10.15;63.97;101668.50;5054074;28;20508;-50
2022/03/21 02:05:25;;;;;;;23.60;18.40;;;;;;;10.13;64.18;101677.13;5054006;28;20057;-52
2022/03/21 02:07:54;;;;;;;21.63;17.13;;;;;;;10.13;64.38;101677.13;5054109;28;20505;-51
2022/03/21 02:10:21;;;;;;;24.10;17.40;;;;;;;10.09;64.95;101676.00;5053092;28;20056;-54
2022/03/21 02:12:49;;;;;;;23.55;17.85;;;;;;;10.15;64.77;101676.84;5053916;28;20060;-51
2022/03/21 02:15:16;;;;;;;21.25;17.13;;;;;;;10.17;64.93;101666.25;5052809;28;20061;-54
2022/03/21 02:17:46;;;;;;;20.92;16.63;;;;;;;10.21;64.86;101658.19;5053812;28;20064;-50
2022/03/21 02:20:18;;;;;;;21.17;17.67;;;;;;;10.19;64.69;101658.47;5053386;28;20084;-54
2022/03/21 02:22:53;;;;;;;22.20;18.25;;;;;;;10.23;64.66;101661.50;5053790;28;20053;-52
2022/03/21 02:25:30;;;;;;;23.70;17.73;;;;;;;10.22;65.01;101665.41;5053180;28;20493;-54
2022/03/21 02:28:03;;;;;;;24.15;18.55;;;;;;;10.24;64.72;101657.59;5053521;28;20053;-56
2022/03/21 02:30:33;;;;;;;21.13;16.70;;;;;;;10.28;64.32;101664.28;5052543;28;20060;-52
2022/03/21 02:33:03;;;;;;;25.20;18.23;;;;;;;10.26;64.66;101660.94;5053152;28;20523;-54
2022/03/21 02:35:32;;;;;;;22.67;18.77;;;;;;;10.23;64.81;101667.09;5053629;28;20044;-52
2022/03/21 02:38:00;;;;;;;19.08;16.40;;;;;;;10.21;65.11;101670.16;5053184;28;20063;-50
2022/03/21 02:40:29;;;;;;;21.10;16.92;;;;;;;10.21;64.96;101669.31;5053346;28;20048;-50
2022/03/21 02:42:57;;;;;;;22.27;16.98;;;;;;;10.17;64.77;101666.25;5053100;28;20056;-52
2022/03/21 02:45:24;;;;;;;21.95;18.65;;;;;;;10.14;64.93;101670.44;5052253;28;20053;-53
2022/03/21 02:47:51;;;;;;;20.75;16.98;;;;;;;10.13;64.85;101668.75;5053129;28;20053;-52
2022/03/21 02:50:26;;;;;;;21.50;16.75;;;;;;;10.12;65.09;101667.09;5052795;28;20517;-50
2022/03/21 02:52:56;;;;;;;22.90;17.88;;;;;;;10.08;64.97;101666.00;5052976;28;20057;-50
2022/03/21 02:55:24;;;;;;;19.83;17.02;;;;;;;10.07;65.28;101663.50;5052743;28;20057;-53
2022/03/21 02:57:55;;;;;;;20.40;16.35;;;;;;;10.05;64.85;101672.13;5052645;28;20057;-51
2022/03/21 03:00:22;;;;;;;20.58;16.13;;;;;;;10.00;64.86;101669.34;5052462;28;20049;-51
2022/03/21 03:02:50;;;;;;;20.83;16.17;;;;;;;9.97;64.81;101664.34;5052810;28;20056;-54
2022/03/21 03:05:17;;;;;;;22.08;17.73;;;;;;;9.87;65.09;101664.34;5052280;28;20061;-52
2022/03/21 03:07:44;;;;;;;23.23;18.27;;;;;;;9.77;64.90;101673.56;5052584;28;20057;-55
2022/03/21 03:10:15;;;;;;;21.98;16.95;;;;;;;9.72;64.84;101662.41;5051949;28;20045;-50
2022/03/21 03:12:46;;;;;;;21.48;16.65;;;;;;;9.66;64.76;101664.38;5052498;28;20049;-55
2022/03/21 03:15:15;;;;;;;22.08;17.52;;;;;;;9.55;65.09;101663.56;5051146;28;20053;-50
2022/03/21 03:17:42;;;;;;;23.83;17.93;;;;;;;9.44;65.31;101674.94;5052996;28;20059;-53
2022/03/21 03:20:14;;;;;;;21.55;16.30;;;;;;;9.32;65.27;101675.22;5052421;28;20049;-55
2022/03/21 03:22:42;;;;;;;23.92;18.00;;;;;;;9.22;65.61;101678.81;5052491;28;20057;-50
2022/03/21 03:25:10;;;;;;;24.05;18.83;;;;;;;9.08;65.96;101670.19;5052139;28;20053;-52
2022/03/21 03:27:37;;;;;;;21.95;18.35;;;;;;;8.98;65.73;101672.09;5052539;28;20064;-51
2022/03/21 03:30:05;;;;;;;23.38;19.15;;;;;;;8.85;66.25;101674.28;5051868;28;20052;-53
2022/03/21 03:32:35;;;;;;;24.15;18.67;;;;;;;8.76;65.90;101673.16;5052286;28;20059;-50
2022/03/21 03:35:02;;;;;;;23.23;18.13;;;;;;;8.70;66.04;101668.69;5052111;28;20064;-53
2022/03/21 03:37:29;;;;;;;24.05;19.00;;;;;;;8.60;65.83;101668.66;5052391;28;20060;-50
2022/03/21 03:39:57;;;;;;;24.80;18.70;;;;;;;8.50;66.38;101675.84;5051758;28;20041;-52
2022/03/21 03:42:24;;;;;;;22.50;17.77;;;;;;;8.39;66.74;101671.28;5051940;28;20044;-51
2022/03/21 03:45:04;;;;;;;24.08;17.45;;;;;;;8.28;66.15;101667.63;5051939;28;20052;-53
2022/03/21 03:47:31;;;;;;;;;;;;;;;8.18;67.04;101667.56;5052123;28;20049;-53
2022/03/21 03:50:00;;;;;;;21.50;16.48;;;;;;;8.10;66.04;101668.09;5052059;28;19927;-54
2022/03/21 03:52:27;;;;;;;21.70;17.58;;;;;;;8.02;67.10;101669.44;5051888;28;20053;-50
2022/03/21 03:54:55;;;;;;;21.08;16.88;;;;;;;7.92;66.10;101675.75;5051997;28;20056;-55
2022/03/21 03:57:22;;;;;;;23.33;19.02;;;;;;;7.81;67.25;101664.84;5051526;28;20068;-54
2022/03/21 03:59:49;;;;;;;22.05;17.30;;;;;;;7.73;67.01;101664.25;5052271;28;20049;-53
2022/03/21 04:02:17;;;;;;;21.67;17.08;;;;;;;7.70;66.80;101666.72;5051710;28;20064;-51
2022/03/21 04:04:44;;;;;;;21.02;16.95;;;;;;;7.65;66.69;101661.97;5051932;28;20120;-50
2022/03/21 04:07:18;;;;;;;24.15;18.88;;;;;;;7.55;66.93;101664.66;5051697;28;20045;-51
2022/03/21 04:09:46;;;;;;;23.75;19.73;;;;;;;7.48;66.82;101669.59;5051903;28;20056;-54
2022/03/21 04:12:14;;;;;;;24.33;18.02;;;;;;;7.40;67.59;101675.63;5051624;28;20063;-51
2022/03/21 04:14:43;;;;;;;22.15;17.90;;;;;;;7.34;67.35;101668.34;5052126;28;20053;-52
2022/03/21 04:17:11;;;;;;;23.30;18.25;;;;;;;7.28;67.69;101673.00;5051311;28;20481;-52
2022/03/21 04:19:38;;;;;;;22.63;17.40;;;;;;;7.23;67.95;101676.56;5051588;28;20060;-50
2022/03/21 04:22:05;;;;;;;25.85;18.95;;;;;;;7.17;68.01;101674.03;5051635;28;20056;-49
2022/03/21 04:24:34;;;;;;;21.85;17.90;;;;;;;7.12;68.24;101680.34;5051388;28;20405;-49
2022/03/21 04:27:02;;;;;;;29.00;20.42;;;;;;;7.05;68.17;101677.75;5051530;28;20500;-55
2022/03/21 04:29:29;;;;;;;22.90;18.05;;;;;;;7.02;67.76;101677.47;5051814;28;20053;-51
2022/03/21 04:31:57;;;;;;;24.48;17.63;;;;;;;6.96;68.51;101682.09;5050852;28;20056;-53
2022/03/21 04:34:24;;;;;;;21.83;17.25;;;;;;;6.91;68.75;101682.91;5053558;28;20056;-54
2022/03/21 04:36:52;;;;;;;22.33;17.55;;;;;;;6.87;68.63;101687.28;5055831;28;20049;-51
2022/03/21 04:39:19;;;;;;;25.75;19.88;;;;;;;6.83;68.49;101694.44;5055152;28;20485;-55
2022/03/21 04:41:48;;;;;;;22.50;17.13;;;;;;;6.79;68.66;101695.22;5055692;28;20478;-53
2022/03/21 04:44:15;;;;;;;24.20;18.35;;;;;;;6.78;68.13;101680.50;5054820;28;20052;-52
2022/03/21 04:46:43;;;;;;;23.55;17.13;;;;;;;6.71;67.97;101686.25;5054779;28;20357;-55
2022/03/21 04:49:11;;;;;;;24.00;18.90;;;;;;;6.66;67.79;101694.50;5055126;28;20052;-51
2022/03/21 04:51:38;;;;;;;23.65;17.30;;;;;;;6.63;67.80;101703.31;5055336;28;20501;-54
2022/03/21 04:54:06;;;;;;;20.88;16.63;;;;;;;6.59;68.52;101702.16;5055457;28;20049;-53
2022/03/21 04:56:33;;;;;;;26.13;17.63;;;;;;;6.55;68.02;101694.63;5055426;28;20052;-51
2022/03/21 04:59:02;;;;;;;22.23;15.65;;;;;;;6.52;68.21;101709.00;5054994;28;20053;-49
2022/03/21 05:01:30;;;;;;;23.25;17.85;;;;;;;6.46;68.15;101706.16;5054825;28;20049;-50
2022/03/21 05:03:57;;;;;;;21.35;16.50;;;;;;;6.41;68.47;101700.56;5055204;28;20048;-51
2022/03/21 05:06:24;;;;;;;22.38;16.10;;;;;;;6.38;68.18;101703.81;5055090;28;20060;-51
2022/03/21 05:08:54;;;;;;;22.70;16.08;;;;;;;6.37;67.88;101713.22;5055281;28;20060;-49
2022/03/21 05:11:21;;;;;;;21.85;16.02;;;;;;;6.31;68.08;101708.72;5051690;28;20046;-49
2022/03/21 05:13:50;;;;;;;23.50;16.77;;;;;;;6.26;68.58;101715.03;5055008;28;20052;-50
2022/03/21 05:16:19;;;;;;;20.67;15.57;;;;;;;6.26;68.42;101708.66;5054358;28;20061;-52
2022/03/21 05:18:47;;;;;;;24.42;17.10;;;;;;;6.21;68.42;101711.34;5055044;28;20596;-53
2022/03/21 05:21:14;;;;;;;22.05;16.13;;;;;;;6.20;67.85;101715.22;5054868;28;20076;-50
2022/03/21 05:31:56;;;;;;;23.33;16.90;;;;;;;6.08;68.42;101721.66;5042332;28;20060;-51
2022/03/21 05:37:08;;;;;;;21.48;16.27;;;;;;;6.01;68.64;101715.47;5055647;28;20055;-52
2022/03/21 05:40:31;;;;;;;21.98;16.98;;;;;;;6.02;68.83;101716.31;5054280;28;20061;-49
2022/03/21 05:42:24;;;;;;;20.80;16.70;;;;;;;6.00;68.17;101716.56;5053420;28;20064;-51
2022/03/21 05:44:52;;;;;;;23.45;17.08;;;;;;;5.99;68.31;101720.44;5053311;28;20057;-51
2022/03/21 05:47:20;;;;;;;23.10;18.42;;;;;;;5.97;68.91;101721.78;5053479;28;20474;-49
2022/03/21 05:49:47;;;;;;;22.75;17.40;;;;;;;6.02;69.79;101727.38;5054440;28;20482;-49
2022/03/21 05:52:14;;;;;;;21.48;17.17;;;;;;;6.04;68.78;101726.03;5054368;28;20075;-50
2022/03/21 05:54:41;;;;;;;25.55;17.42;;;;;;;6.06;68.05;101725.78;5054447;28;20056;-52
2022/03/21 05:57:09;;;;;;;21.77;15.48;;;;;;;6.08;67.88;101729.13;5053942;28;20060;-49
2022/03/21 06:02:23;;;;;;;21.02;16.98;;;;;;;6.08;67.08;101735.50;5054166;28;20079;-53
2022/03/21 06:04:50;;;;;;;23.65;18.33;;;;;;;6.06;67.37;101737.66;5052884;28;20060;-50
2022/03/21 06:07:18;;;;;;;22.98;17.50;;;;;;;6.12;67.11;101743.31;5051024;28;20049;-53
2022/03/21 06:09:45;;;;;;;22.92;18.48;;;;;;;6.13;67.64;101753.25;5053838;28;20053;-51
2022/03/21 06:12:13;;;;;;;23.23;17.10;;;;;;;6.14;67.23;101753.00;5053300;28;20053;-51
2022/03/21 06:14:41;;;;;;;22.38;17.58;;;;;;;6.16;67.11;101759.13;5054043;28;20092;-50
2022/03/21 06:17:08;;;;;;;22.30;17.40;;;;;;;6.21;67.08;101756.44;5053958;28;20057;-53
2022/03/21 06:19:37;;;;;;;24.70;19.33;;;;;;;6.23;66.43;101753.41;5049165;28;20056;-51
2022/03/21 06:22:04;;;;;;;26.73;19.40;;;;;;;6.22;66.38;101757.28;5042917;28;20410;-51
2022/03/21 06:24:32;;;;;;;22.60;17.05;;;;;;;6.32;66.68;101751.91;5047989;28;20403;-51
2022/03/21 06:26:59;;;;;;;23.55;17.67;;;;;;;6.35;66.58;101759.69;5044715;28;20055;-50
2022/03/21 06:29:28;;;;;;;21.75;17.13;;;;;;;6.47;66.15;101762.34;5042458;28;20079;-50
2022/03/21 06:31:55;;;;;;;19.80;16.60;;;;;;;6.60;66.09;101772.22;5051005;28;20069;-51
2022/03/21 06:34:22;;;;;;;22.25;16.90;;;;;;;6.71;66.44;101776.78;5041837;28;20057;-52
2022/03/21 06:36:52;;;;;;;24.75;17.58;;;;;;;6.93;66.39;101775.97;5033127;28;20509;-50
2022/03/21 06:39:19;;;;;;;;;;;;;;;7.07;65.83;101774.47;5038100;28;20061;-55
2022/03/21 06:41:47;;;;;;;25.60;19.30;;;;;;;7.30;65.66;101774.19;5050715;28;19949;-53
2022/03/21 06:44:15;;;;;;;23.63;19.20;;;;;;;7.53;65.34;101772.22;5041970;28;20425;-52
2022/03/21 06:46:42;;;;;;;21.90;17.50;;;;;;;7.68;65.92;101782.59;5035962;28;20057;-51
2022/03/21 06:49:10;;;;;;;21.23;17.02;;;;;;;7.86;64.74;101781.41;5049717;28;20053;-49
2022/03/21 06:51:37;;;;;;;23.52;18.02;;;;;;;8.09;64.88;101791.31;5048879;28;20046;-51
2022/03/21 06:54:06;;;;;;;23.10;18.55;;;;;;;8.43;63.43;101783.53;5044921;28;20053;-50
2022/03/21 06:56:34;;;;;;;21.70;16.45;;;;;;;8.97;62.36;101785.22;5040609;28;20482;-51
2022/03/21 06:59:01;;;;;;;20.98;18.65;;;;;;;9.66;60.17;101785.94;5048376;28;20053;-49
2022/03/21 07:01:31;;;;;;;20.67;17.13;;;;;;;10.31;58.58;101775.13;5052717;28;20405;-54
2022/03/21 07:03:59;;;;;;;19.15;16.15;;;;;;;11.00;56.43;101776.31;5052041;28;20060;-51
2022/03/21 07:06:26;;;;;;;18.50;15.88;;;;;;;11.68;54.75;101775.69;5049639;28;20057;-50
2022/03/21 07:08:54;;;;;;;19.83;15.57;;;;;;;12.39;53.47;101779.03;5033219;28;20053;-49
2022/03/21 07:11:22;;;;;;;17.50;15.20;;;;;;;13.07;51.73;101774.34;5044647;28;20049;-53
2022/03/21 07:13:50;;;;;;;20.77;16.88;;;;;;;13.83;50.02;101778.03;5052225;28;20060;-51
2022/03/21 07:16:17;;;;;;;19.05;17.08;;;;;;;14.53;48.13;101779.06;5052692;28;20060;-51
2022/03/21 07:18:45;;;;;;;21.52;16.08;;;;;;;15.18;45.87;101772.44;5041582;28;20045;-49
2022/03/21 07:21:13;;;;;;;18.65;16.50;;;;;;;15.85;44.33;101770.94;5051199;28;20371;-52
2022/03/21 07:23:40;;;;;;;16.95;15.10;;;;;;;16.52;42.98;101770.88;5038928;28;20056;-49
2022/03/21 07:26:08;;;;;;;20.85;16.58;;;;;;;17.22;41.72;101768.38;5048719;28;20397;-51
2022/03/21 07:28:36;;;;;;;17.25;15.43;;;;;;;17.93;40.27;101775.72;5047809;28;20060;-55
2022/03/21 07:31:04;;;;;;;19.30;15.77;;;;;;;18.59;39.00;101772.63;5036913;28;20045;-51
2022/03/21 07:33:31;;;;;;;19.48;16.08;;;;;;;19.20;37.64;101763.88;5040766;28;20513;-50
2022/03/21 07:36:00;;;;;;;18.52;16.63;;;;;;;19.89;36.56;101773.03;5032930;28;20053;-53
2022/03/21 07:38:29;;;;;;;17.67;15.95;;;;;;;20.59;35.65;101771.16;5034211;28;20060;-49
2022/03/21 07:40:56;;;;;;;18.63;16.80;;;;;;;21.20;34.24;101783.69;5050851;28;20049;-50
2022/03/21 07:43:24;;;;;;;17.08;15.38;;;;;;;21.68;33.54;101776.31;5044217;28;20056;-49
2022/03/21 07:48:37;;;;;;;17.88;15.98;;;;;;;22.95;31.25;101778.59;5049192;28;20049;-51
2022/03/21 07:51:07;;;;;;;18.52;16.73;;;;;;;23.36;30.28;101784.91;5043832;28;20060;-52
2022/03/21 07:53:35;;;;;;;20.45;18.38;;;;;;;23.82;29.91;101777.44;5045862;28;20072;-50
2022/03/21 07:56:02;;;;;;;21.95;19.73;;;;;;;24.16;29.06;101774.06;5037175;28;20056;-51
2022/03/21 07:58:31;;;;;;;20.23;18.13;;;;;;;24.51;28.90;101773.97;5030399;28;20072;-52
2022/03/21 08:01:03;;;;;;;21.48;19.35;;;;;;;24.85;27.81;101777.00;5038243;28;20140;-53
2022/03/21 08:03:31;;;;;;;21.42;18.90;;;;;;;25.26;26.30;101771.56;5041376;28;20069;-49
2022/03/21 08:05:59;;;;;;;19.85;17.90;;;;;;;25.68;25.44;101785.63;5032277;28;20049;-51
2022/03/21 08:08:26;;;;;;;17.05;15.23;;;;;;;26.21;23.47;101773.28;5044057;28;20053;-55
2022/03/21 08:10:56;;;;;;;18.58;16.23;;;;;;;26.76;22.49;101769.75;5049083;28;20053;-56
2022/03/21 08:13:25;;;;;;;18.17;16.27;;;;;;;27.19;22.47;101777.84;5037474;28;20067;-52
2022/03/21 08:15:53;;;;;;;17.52;15.75;;;;;;;27.49;22.08;101781.38;5042723;28;20053;-50
2022/03/21 08:18:21;;;;;;;16.20;14.60;;;;;;;28.13;21.62;101786.59;5043252;28;20059;-54
2022/03/21 08:20:49;;;;;;;18.23;16.42;;;;;;;28.50;21.89;101779.75;5047766;28;20060;-50
2022/03/21 08:23:16;;;;;;;17.33;15.73;;;;;;;28.99;21.12;101783.06;5048841;28;20056;-54
2022/03/21 08:25:46;;;;;;;16.63;15.05;;;;;;;29.54;20.36;101779.72;5039019;28;20064;-51
2022/03/21 08:28:14;;;;;;;16.23;14.73;;;;;;;30.21;19.54;101779.88;5048249;28;20064;-52
2022/03/21 08:30:42;;;;;;;16.15;14.45;;;;;;;30.48;19.00;101782.22;5038163;28;20048;-51
2022/03/21 08:33:12;;;;;;;16.98;15.43;;;;;;;30.82;18.37;101787.31;5049270;28;20049;-52
2022/03/21 08:35:41;;;;;;;16.02;14.63;;;;;;;31.45;17.54;101785.13;5048695;28;20055;-52
2022/03/21 08:38:10;;;;;;;15.00;13.60;;;;;;;31.84;16.69;101789.63;5038303;28;20056;-50
2022/03/21 08:40:38;;;;;;;15.25;13.75;;;;;;;32.19;16.51;101789.59;5048152;28;20060;-52
2022/03/21 08:43:06;;;;;;;15.77;14.27;;;;;;;32.62;16.13;101786.13;5039204;28;20052;-51
2022/03/21 08:45:34;;;;;;;14.85;13.40;;;;;;;33.08;15.69;101788.25;5049701;28;20068;-51
2022/03/21 08:48:01;;;;;;;15.57;14.03;;;;;;;33.43;15.68;101774.44;5048095;28;20072;-53
2022/03/21 08:50:29;;;;;;;15.63;14.13;;;;;;;33.82;14.54;101780.69;5048090;28;20045;-55
2022/03/21 08:52:58;;;;;;;14.00;12.70;;;;;;;34.28;14.13;101776.78;5030413;28;20072;-52
2022/03/21 08:55:26;;;;;;;15.48;13.98;;;;;;;34.46;13.56;101776.38;5040054;28;20084;-54
2022/03/21 08:57:53;;;;;;;13.85;12.50;;;;;;;34.92;13.41;101774.44;5049826;28;20068;-54
2022/03/21 09:00:20;;;;;;;14.50;13.20;;;;;;;35.14;13.37;101765.22;5048022;28;20417;-54
2022/03/21 09:02:49;;;;;;;13.38;12.02;;;;;;;35.39;13.30;101772.41;5045384;28;20045;-53
2022/03/21 09:05:18;;;;;;;14.50;13.02;;;;;;;35.68;13.13;101775.31;5049747;28;20056;-56
2022/03/21 09:07:46;;;;;;;13.55;12.15;;;;;;;36.00;12.86;101764.84;5031957;28;20060;-56
2022/03/21 09:10:15;;;;;;;12.80;11.70;;;;;;;36.26;12.51;101775.22;5039642;28;20059;-55
2022/03/21 09:12:43;;;;;;;12.80;11.63;;;;;;;36.25;12.65;101772.81;5041411;28;20497;-57
2022/03/21 09:15:11;;;;;;;12.63;11.43;;;;;;;36.71;12.08;101764.69;5045433;28;20049;-57
2022/03/21 09:17:39;;;;;;;12.13;10.93;;;;;;;36.67;11.05;101761.91;5049599;28;20053;-56
2022/03/21 09:20:08;;;;;;;13.13;11.80;;;;;;;37.03;11.23;101760.69;5035352;28;21735;-54
2022/03/21 09:22:36;;;;;;;13.45;12.23;;;;;;;37.05;11.49;101763.94;5039588;28;20055;-54
2022/03/21 09:25:03;;;;;;;13.10;11.35;;;;;;;37.14;11.14;101763.22;5047181;28;20487;-53
2022/03/21 09:27:32;;;;;;;12.10;11.00;;;;;;;36.74;11.32;101752.94;5047760;28;20108;-55
2022/03/21 09:29:59;;;;;;;12.38;11.18;;;;;;;37.50;11.16;101747.38;5045986;28;20053;-53
2022/03/21 09:32:27;;;;;;;12.30;11.07;;;;;;;37.85;10.06;101748.16;5052077;28;20053;-55
2022/03/21 09:34:54;;;;;;;12.70;11.50;;;;;;;38.11;10.98;101750.91;5043144;28;20053;-53
2022/03/21 09:37:21;;;;;;;13.18;11.98;;;;;;;38.26;11.20;101749.06;5050400;28;20555;-57
2022/03/21 09:39:49;;;;;;;12.30;11.10;;;;;;;38.44;10.85;101747.50;5043212;28;20042;-55
2022/03/21 09:42:17;;;;;;;12.85;11.65;;;;;;;38.74;10.62;101749.53;5053344;28;20049;-56
2022/03/21 09:44:53;;;;;;;12.48;10.95;;;;;;;39.05;10.28;101744.94;5052387;28;20060;-56
2022/03/21 09:50:10;;;;;;;13.38;11.98;;;;;;;38.71;9.42;101744.69;5040178;28;20060;-56
2022/03/21 09:52:38;;;;;;;13.57;12.18;;;;;;;38.01;9.96;101744.22;5038598;28;20060;-54
2022/03/21 09:55:07;;;;;;;14.48;12.40;;;;;;;36.42;10.81;101748.19;5051892;28;20053;-55
2022/03/21 09:57:35;;;;;;;12.48;11.20;;;;;;;36.73;10.69;101751.34;5050553;28;20509;-55
2022/03/21 10:00:06;;;;;;;13.77;12.48;;;;;;;37.71;10.99;101748.69;5052257;28;20048;-55
2022/03/21 10:02:35;;;;;;;14.05;12.63;;;;;;;37.54;10.36;101739.34;5046362;28;20049;-53
2022/03/21 10:05:02;;;;;;;12.70;11.50;;;;;;;37.38;10.55;101741.16;5051133;28;20064;-56
2022/03/21 10:07:30;;;;;;;13.35;12.05;;;;;;;37.90;10.48;101735.06;5052307;28;20520;-57
2022/03/21 10:10:08;;;;;;;13.27;11.97;;;;;;;38.85;10.38;101736.63;5037958;28;20052;-53
2022/03/21 10:12:36;;;;;;;13.25;11.98;;;;;;;39.02;10.09;101737.97;5045866;28;20052;-55
2022/03/21 10:15:08;;;;;;;12.23;11.00;;;;;;;38.97;9.60;101732.78;5048508;28;20052;-54
2022/03/21 10:17:35;;;;;;;12.55;11.35;;;;;;;38.15;10.21;101734.91;5048905;28;20072;-54
2022/03/21 10:20:04;;;;;;;12.03;10.70;;;;;;;38.76;10.48;101734.50;5048026;28;20061;-56
2022/03/21 10:22:43;;;;;;;13.00;11.20;;;;;;;38.89;9.54;101725.63;5040982;28;20488;-56
2022/03/21 10:25:15;;;;;;;11.65;10.65;;;;;;;38.20;10.52;101732.66;5045081;28;20505;-56
2022/03/21 10:27:44;;;;;;;13.73;11.80;;;;;;;38.76;10.16;101731.59;5047888;28;20056;-57
2022/03/21 10:30:18;;;;;;;12.45;11.15;;;;;;;39.39;10.14;101726.31;5037117;28;20068;-56
2022/03/21 10:32:51;;;;;;;12.15;11.02;;;;;;;39.63;9.85;101725.66;5046227;28;20413;-57
2022/03/21 10:35:21;;;;;;;11.57;10.48;;;;;;;40.07;9.87;101731.06;5044862;28;20061;-57
2022/03/21 10:37:51;;;;;;;11.30;10.30;;;;;;;40.14;9.61;101725.69;5053212;28;20056;-54
2022/03/21 10:40:27;;;;;;;11.35;10.18;;;;;;;39.73;9.38;101727.25;5047469;28;20069;-57
2022/03/21 10:42:57;;;;;;;11.80;10.60;;;;;;;39.58;10.19;101725.03;5049179;28;20049;-55
2022/03/21 10:45:39;;;;;;;12.13;11.02;;;;;;;39.35;9.84;101725.66;5046572;28;20057;-54
2022/03/21 10:48:08;;;;;;;12.38;11.18;;;;;;;39.22;9.71;101728.75;5039901;28;20059;-54
2022/03/21 10:50:37;;;;;;;11.88;10.77;;;;;;;38.51;10.14;101735.56;5050124;28;20055;-52
2022/03/21 10:53:09;;;;;;;11.80;10.60;;;;;;;38.12;10.60;101727.16;5049973;28;20049;-56
2022/03/21 10:55:38;;;;;;;12.65;11.38;;;;;;;38.80;10.21;101726.41;5047554;28;20049;-57
2022/03/21 10:58:05;;;;;;;;;;;;;;;38.61;10.59;101722.66;5044423;28;20049;-55
2022/03/21 11:00:37;;;;;;;12.05;10.73;;;;;;;39.25;9.89;101719.06;5031327;28;19925;-54
2022/03/21 11:03:09;;;;;;;11.63;10.43;;;;;;;39.76;9.95;101724.19;5048784;28;20454;-57
2022/03/21 11:05:38;;;;;;;13.35;11.25;;;;;;;38.96;9.89;101723.25;5050419;28;20045;-56
2022/03/21 11:08:13;;;;;;;11.13;10.02;;;;;;;38.91;10.01;101726.78;5041269;28;20052;-56
2022/03/21 11:10:40;;;;;;;13.32;11.18;;;;;;;38.69;10.64;101718.16;5043948;28;20052;-57
2022/03/21 11:13:10;;;;;;;11.40;10.37;;;;;;;39.28;10.36;101717.25;5050715;28;20383;-54
2022/03/21 11:15:41;;;;;;;12.10;10.85;;;;;;;39.83;10.19;101707.63;5047335;28;20345;-53
2022/03/21 11:18:09;;;;;;;11.38;10.38;;;;;;;40.16;9.54;101713.53;5047003;28;20048;-57
2022/03/21 11:20:37;;;;;;;11.65;10.45;;;;;;;40.35;9.67;101715.09;5050500;28;20079;-57
2022/03/21 11:23:05;;;;;;;14.75;9.95;;;;;;;39.94;10.00;101711.69;5049831;28;20493;-57
2022/03/21 11:25:34;;;;;;;11.77;10.63;;;;;;;40.02;9.72;101706.28;5050868;28;20059;-57
2022/03/21 11:28:38;;;;;;;10.73;9.73;;;;;;;40.38;9.56;101707.44;5042563;28;20487;-57
2022/03/21 11:31:35;;;;;;;10.93;9.88;;;;;;;39.87;9.72;101708.31;5038767;28;20045;-53
2022/03/21 11:34:16;;;;;;;11.33;9.53;;;;;;;40.12;9.65;101710.78;5049299;28;20048;-52
2022/03/21 11:36:51;;;;;;;10.48;9.48;;;;;;;39.85;9.85;101702.16;5040831;28;20056;-57
2022/03/21 11:39:19;;;;;;;10.52;9.60;;;;;;;39.01;10.54;101709.31;5031504;28;20132;-57
2022/03/21 11:42:00;;;;;;;10.27;9.27;;;;;;;39.86;10.07;101700.84;5043578;28;20413;-56
2022/03/21 11:44:30;;;;;;;8.98;8.07;;;;;;;40.23;10.54;101710.25;5035833;28;20052;-56